Airfield :
LOGIN :

Register | Disclaimer

   EN    FR    IT 

 










Legend :    VFR   Marginal VFR   IFR   Intensive IFR   Very Intensive IFR
Visi :
Ceiling :
>= 8 km
>= 3000ft
5 to 8 km
1000 to 3000 ft
1500m to 5 km
500 to 1000 ft
800 to 1500m
200 to 500 ft
< 800m
< 200 ft
Symbols :   Thunderstorms  Fog  Heavy snow  Heavy precipitations  Wind > 20 kt
SIGMETs :     Misc.  Thunderstorms  Icing  Turbulence  Mountain Waves  Volcanic Ashes







- Airport Elevation : 681 ft
- IATA code : LBA
- Download approach charts


EGNM - Leeds Bradford

CURRENT METAR :
  • 192220Z 20013KT 9999 -DZ FEW018 SCT030 07/04 Q1013

EXPIRED METARs :
  • 192150Z 20010KT 170V230 9999 -DZ FEW018 SCT030 07/04 Q1013
  • 192120Z 21010KT 9999 SCT018 SCT022 07/04 Q1013
  • 192050Z 20009KT 160V230 9999 SCT020 07/04 Q1013
  • 192020Z 21010KT 180V240 9999 SCT022 07/04 Q1013
  • 191950Z 21011KT 180V250 9999 SCT022 07/03 Q1013

TAF TAF EGNM
Valid from the 19 at 18:00 until the 20 at 18:00 UTC


191652Z 1918/2018 23012KT 9999 SCT022
TEMPO 1918/2018 24015G25KT 7000 -RA BKN010
PROB30
TEMPO 1920/2009 4000 RA BKN008
PROB30
TEMPO 2015/2018 BKN006
ATIS : +44 113 250 9696 (x2489)
No reported NOTAMs for that airfield.



MET'MAP, your aeronautical weather chart ! - Copyright ORBIFLY December 2007 - Disclaimer

ORBIFLY MET'MAP TEAM :

Programming & Development : Alexandra Zaïnal
Concept & Development : Baudouin d'Aumeries
Co-Development & Prog : Marc-Olivier Méhu
Technical & hardware support : Manuel Goepfert

Contact : metmap@orbifly.com




SOURCES & CREDITS :

   NOAA